sensor_id;sensor_type;location;lat;lon;timestamp;pressure;altitude;pressure_sealevel;temperature;humidity
41202;BME280;26936;50.524;8.684;2024-01-15T00:00:38;98112.63;;;-0.03;99.48
41202;BME280;26936;50.524;8.684;2024-01-15T00:03:04;98107.94;;;-0.06;100.00
41202;BME280;26936;50.524;8.684;2024-01-15T00:05:29;98106.78;;;-0.09;100.00
41202;BME280;26936;50.524;8.684;2024-01-15T00:07:54;98105.81;;;0.05;100.00
41202;BME280;26936;50.524;8.684;2024-01-15T00:10:20;98094.44;;;-0.01;100.00
41202;BME280;26936;50.524;8.684;2024-01-15T00:12:45;98100.41;;;-0.06;100.00
41202;BME280;26936;50.524;8.684;2024-01-15T00:15:10;98095.28;;;-0.07;100.00
41202;BME280;26936;50.524;8.684;2024-01-15T00:17:35;98086.59;;;-0.06;100.00
41202;BME280;26936;50.524;8.684;2024-01-15T00:20:01;98091.78;;;-0.11;100.00
41202;BME280;26936;50.524;8.684;2024-01-15T00:22:26;98092.56;;;-0.11;100.00
41202;BME280;26936;50.524;8.684;2024-01-15T00:24:52;98087.03;;;-0.11;100.00
41202;BME280;26936;50.524;8.684;2024-01-15T00:27:17;98088.63;;;-0.13;100.00
41202;BME280;26936;50.524;8.684;2024-01-15T00:29:42;98087.44;;;-0.12;100.00
41202;BME280;26936;50.524;8.684;2024-01-15T00:32:08;98085.41;;;-0.08;100.00
41202;BME280;26936;50.524;8.684;2024-01-15T00:34:33;98084.72;;;-0.16;100.00
41202;BME280;26936;50.524;8.684;2024-01-15T00:36:58;98081.53;;;-0.14;100.00
41202;BME280;26936;50.524;8.684;2024-01-15T00:39:24;98083.88;;;-0.13;100.00
41202;BME280;26936;50.524;8.684;2024-01-15T00:41:49;98081.09;;;-0.09;100.00
41202;BME280;26936;50.524;8.684;2024-01-15T00:44:14;98063.72;;;-0.13;100.00
41202;BME280;26936;50.524;8.684;2024-01-15T00:46:44;98072.53;;;-0.22;100.00
41202;BME280;26936;50.524;8.684;2024-01-15T00:49:10;98064.25;;;-0.22;100.00
41202;BME280;26936;50.524;8.684;2024-01-15T00:51:36;98057.44;;;-0.14;100.00
41202;BME280;26936;50.524;8.684;2024-01-15T00:54:02;98057.44;;;-0.14;100.00
41202;BME280;26936;50.524;8.684;2024-01-15T00:56:27;98053.41;;;-0.09;100.00
41202;BME280;26936;50.524;8.684;2024-01-15T00:58:52;98044.34;;;-0.13;100.00
41202;BME280;26936;50.524;8.684;2024-01-15T01:01:18;98039.97;;;-0.07;100.00
41202;BME280;26936;50.524;8.684;2024-01-15T01:03:43;98043.09;;;-0.05;100.00
41202;BME280;26936;50.524;8.684;2024-01-15T01:06:09;98040.34;;;-0.05;100.00
41202;BME280;26936;50.524;8.684;2024-01-15T01:08:34;98037.19;;;-0.07;100.00
41202;BME280;26936;50.524;8.684;2024-01-15T01:10:59;98045.50;;;-0.07;100.00
41202;BME280;26936;50.524;8.684;2024-01-15T01:13:25;98049.84;;;-0.10;100.00
41202;BME280;26936;50.524;8.684;2024-01-15T01:15:50;98045.88;;;-0.05;100.00
41202;BME280;26936;50.524;8.684;2024-01-15T01:18:16;98042.97;;;0.02;100.00
41202;BME280;26936;50.524;8.684;2024-01-15T01:20:41;98039.13;;;-0.04;100.00
41202;BME280;26936;50.524;8.684;2024-01-15T01:23:06;98037.16;;;-0.04;100.00
41202;BME280;26936;50.524;8.684;2024-01-15T01:25:32;98034.69;;;0.02;100.00
41202;BME280;26936;50.524;8.684;2024-01-15T01:27:57;98033.50;;;0.03;100.00
41202;BME280;26936;50.524;8.684;2024-01-15T01:30:22;98022.28;;;0.14;100.00
41202;BME280;26936;50.524;8.684;2024-01-15T01:32:47;98027.81;;;0.14;100.00
41202;BME280;26936;50.524;8.684;2024-01-15T01:35:13;98014.75;;;0.14;100.00
41202;BME280;26936;50.524;8.684;2024-01-15T01:37:38;98019.88;;;0.16;100.00
41202;BME280;26936;50.524;8.684;2024-01-15T01:40:04;98010.81;;;0.12;100.00
41202;BME280;26936;50.524;8.684;2024-01-15T01:42:29;98014.81;;;0.11;100.00
41202;BME280;26936;50.524;8.684;2024-01-15T01:44:55;98030.19;;;0.12;100.00
41202;BME280;26936;50.524;8.684;2024-01-15T01:47:23;98027.75;;;0.17;100.00
41202;BME280;26936;50.524;8.684;2024-01-15T01:49:51;98019.25;;;0.05;100.00
41202;BME280;26936;50.524;8.684;2024-01-15T01:52:16;98024.78;;;0.05;100.00
41202;BME280;26936;50.524;8.684;2024-01-15T01:54:42;98026.66;;;0.11;100.00
41202;BME280;26936;50.524;8.684;2024-01-15T01:57:08;98033.38;;;0.10;100.00
41202;BME280;26936;50.524;8.684;2024-01-15T01:59:34;98027.03;;;0.13;100.00
41202;BME280;26936;50.524;8.684;2024-01-15T02:02:02;98015.31;;;0.02;100.00
41202;BME280;26936;50.524;8.684;2024-01-15T02:04:29;98022.84;;;0.02;100.00
41202;BME280;26936;50.524;8.684;2024-01-15T02:06:55;98028.00;;;-0.01;100.00
41202;BME280;26936;50.524;8.684;2024-01-15T02:09:21;98022.13;;;-0.06;100.00
41202;BME280;26936;50.524;8.684;2024-01-15T02:11:47;98029.56;;;0.00;100.00
41202;BME280;26936;50.524;8.684;2024-01-15T02:14:12;98020.16;;;-0.06;100.00
41202;BME280;26936;50.524;8.684;2024-01-15T02:16:38;98024.41;;;0.03;100.00
41202;BME280;26936;50.524;8.684;2024-01-15T02:19:03;98026.41;;;-0.02;100.00
41202;BME280;26936;50.524;8.684;2024-01-15T02:21:28;98026.41;;;-0.02;100.00
41202;BME280;26936;50.524;8.684;2024-01-15T02:23:54;98023.44;;;-0.14;100.00
41202;BME280;26936;50.524;8.684;2024-01-15T02:26:20;98032.56;;;-0.17;100.00
41202;BME280;26936;50.524;8.684;2024-01-15T02:28:46;98029.47;;;-0.23;100.00
41202;BME280;26936;50.524;8.684;2024-01-15T02:31:12;98032.28;;;-0.26;100.00
41202;BME280;26936;50.524;8.684;2024-01-15T02:33:37;98025.47;;;-0.18;100.00
41202;BME280;26936;50.524;8.684;2024-01-15T02:36:02;98020.75;;;-0.21;100.00
41202;BME280;26936;50.524;8.684;2024-01-15T02:38:28;98026.66;;;-0.19;100.00
41202;BME280;26936;50.524;8.684;2024-01-15T02:40:53;98028.97;;;-0.14;100.00
41202;BME280;26936;50.524;8.684;2024-01-15T02:43:18;98025.09;;;-0.20;100.00
41202;BME280;26936;50.524;8.684;2024-01-15T02:45:44;98027.50;;;-0.22;100.00
41202;BME280;26936;50.524;8.684;2024-01-15T02:48:10;98032.19;;;-0.19;100.00
41202;BME280;26936;50.524;8.684;2024-01-15T02:50:35;98030.94;;;-0.15;100.00
41202;BME280;26936;50.524;8.684;2024-01-15T02:53:00;98036.53;;;-0.18;100.00
41202;BME280;26936;50.524;8.684;2024-01-15T02:55:25;98038.94;;;-0.20;100.00
41202;BME280;26936;50.524;8.684;2024-01-15T02:57:51;98029.47;;;-0.23;100.00
41202;BME280;26936;50.524;8.684;2024-01-15T03:00:16;98036.94;;;-0.20;100.00
41202;BME280;26936;50.524;8.684;2024-01-15T03:02:44;98024.69;;;-0.19;100.00
41202;BME280;26936;50.524;8.684;2024-01-15T03:05:10;98028.63;;;-0.20;100.00
41202;BME280;26936;50.524;8.684;2024-01-15T03:07:35;98034.28;;;-0.27;100.00
41202;BME280;26936;50.524;8.684;2024-01-15T03:10:01;98041.44;;;-0.33;100.00
41202;BME280;26936;50.524;8.684;2024-01-15T03:12:26;98028.44;;;-0.36;100.00
41202;BME280;26936;50.524;8.684;2024-01-15T03:14:51;98041.50;;;-0.36;100.00
41202;BME280;26936;50.524;8.684;2024-01-15T03:17:17;98034.69;;;-0.28;100.00
41202;BME280;26936;50.524;8.684;2024-01-15T03:19:42;98025.63;;;-0.32;100.00
41202;BME280;26936;50.524;8.684;2024-01-15T03:22:07;98026.34;;;-0.25;100.00
41202;BME280;26936;50.524;8.684;2024-01-15T03:24:34;98015.63;;;-0.23;100.00
41202;BME280;26936;50.524;8.684;2024-01-15T03:26:59;98031.34;;;-0.16;100.00
41202;BME280;26936;50.524;8.684;2024-01-15T03:29:25;98031.06;;;-0.22;100.00
41202;BME280;26936;50.524;8.684;2024-01-15T03:31:51;98026.63;;;-0.16;100.00
41202;BME280;26936;50.524;8.684;2024-01-15T03:34:16;98019.97;;;-0.22;100.00
41202;BME280;26936;50.524;8.684;2024-01-15T03:36:41;98025.97;;;-0.27;100.00
41202;BME280;26936;50.524;8.684;2024-01-15T03:39:07;98012.59;;;-0.32;100.00
41202;BME280;26936;50.524;8.684;2024-01-15T03:41:32;98008.25;;;-0.33;100.00
41202;BME280;26936;50.524;8.684;2024-01-15T03:43:58;98008.19;;;-0.29;100.00
41202;BME280;26936;50.524;8.684;2024-01-15T03:46:24;98008.66;;;-0.34;100.00
41202;BME280;26936;50.524;8.684;2024-01-15T03:48:49;98014.97;;;-0.34;100.00
41202;BME280;26936;50.524;8.684;2024-01-15T03:51:17;98015.06;;;-0.41;100.00
41202;BME280;26936;50.524;8.684;2024-01-15T03:53:42;98013.06;;;-0.37;100.00
41202;BME280;26936;50.524;8.684;2024-01-15T03:56:07;98011.88;;;-0.39;100.00
41202;BME280;26936;50.524;8.684;2024-01-15T03:58:33;98012.72;;;-0.42;100.00
41202;BME280;26936;50.524;8.684;2024-01-15T04:00:58;98009.94;;;-0.42;100.00
41202;BME280;26936;50.524;8.684;2024-01-15T04:03:23;98004.81;;;-0.44;100.00
41202;BME280;26936;50.524;8.684;2024-01-15T04:05:48;98018.19;;;-0.39;100.00
41202;BME280;26936;50.524;8.684;2024-01-15T04:08:14;98015.03;;;-0.37;100.00
41202;BME280;26936;50.524;8.684;2024-01-15T04:10:39;98013.09;;;-0.40;100.00
41202;BME280;26936;50.524;8.684;2024-01-15T04:13:04;98021.53;;;-0.51;100.00
41202;BME280;26936;50.524;8.684;2024-01-15T04:15:29;98003.72;;;-0.50;100.00
41202;BME280;26936;50.524;8.684;2024-01-15T04:17:55;98015.19;;;-0.51;100.00
41202;BME280;26936;50.524;8.684;2024-01-15T04:20:20;98018.78;;;-0.54;100.00
41202;BME280;26936;50.524;8.684;2024-01-15T04:22:45;98013.25;;;-0.54;100.00
41202;BME280;26936;50.524;8.684;2024-01-15T04:25:10;98009.69;;;-0.55;100.00
41202;BME280;26936;50.524;8.684;2024-01-15T04:27:36;98007.56;;;-0.40;100.00
41202;BME280;26936;50.524;8.684;2024-01-15T04:30:01;98002.06;;;-0.44;100.00
41202;BME280;26936;50.524;8.684;2024-01-15T04:32:26;98002.50;;;-0.49;100.00
41202;BME280;26936;50.524;8.684;2024-01-15T04:34:52;98002.84;;;-0.43;100.00
41202;BME280;26936;50.524;8.684;2024-01-15T04:37:17;97998.84;;;-0.39;100.00
41202;BME280;26936;50.524;8.684;2024-01-15T04:39:42;98003.53;;;-0.36;100.00
41202;BME280;26936;50.524;8.684;2024-01-15T04:42:08;98006.72;;;-0.37;100.00
41202;BME280;26936;50.524;8.684;2024-01-15T04:44:33;97994.91;;;-0.38;100.00
41202;BME280;26936;50.524;8.684;2024-01-15T04:46:58;98005.19;;;-0.42;100.00
41202;BME280;26936;50.524;8.684;2024-01-15T04:49:24;98003.19;;;-0.38;100.00
41202;BME280;26936;50.524;8.684;2024-01-15T04:51:52;97990.94;;;-0.37;100.00
41202;BME280;26936;50.524;8.684;2024-01-15T04:54:17;98007.09;;;-0.35;100.00
41202;BME280;26936;50.524;8.684;2024-01-15T04:56:43;98000.78;;;-0.36;100.00
41202;BME280;26936;50.524;8.684;2024-01-15T04:59:10;97997.28;;;-0.40;100.00
41202;BME280;26936;50.524;8.684;2024-01-15T05:01:35;98000.09;;;-0.43;100.00
41202;BME280;26936;50.524;8.684;2024-01-15T05:04:00;97998.03;;;-0.39;100.00
41202;BME280;26936;50.524;8.684;2024-01-15T05:06:26;97987.75;;;-0.35;100.00
41202;BME280;26936;50.524;8.684;2024-01-15T05:08:51;97983.34;;;-0.33;100.00
41202;BME280;26936;50.524;8.684;2024-01-15T05:11:17;97989.69;;;-0.32;100.00
41202;BME280;26936;50.524;8.684;2024-01-15T05:13:42;97991.25;;;-0.31;100.00
41202;BME280;26936;50.524;8.684;2024-01-15T05:16:07;98000.69;;;-0.29;100.00
41202;BME280;26936;50.524;8.684;2024-01-15T05:18:33;97985.31;;;-0.30;100.00
41202;BME280;26936;50.524;8.684;2024-01-15T05:20:58;97987.31;;;-0.34;100.00
41202;BME280;26936;50.524;8.684;2024-01-15T05:23:23;97980.66;;;-0.36;100.00
41202;BME280;26936;50.524;8.684;2024-01-15T05:25:48;97983.34;;;-0.33;100.00
41202;BME280;26936;50.524;8.684;2024-01-15T05:28:14;97982.88;;;-0.28;100.00
41202;BME280;26936;50.524;8.684;2024-01-15T05:30:40;97988.13;;;-0.33;100.00
41202;BME280;26936;50.524;8.684;2024-01-15T05:33:05;97982.66;;;-0.40;100.00
41202;BME280;26936;50.524;8.684;2024-01-15T05:35:32;97984.47;;;-0.27;100.00
41202;BME280;26936;50.524;8.684;2024-01-15T05:37:57;97990.44;;;-0.28;100.00
41202;BME280;26936;50.524;8.684;2024-01-15T05:40:22;97995.59;;;-0.30;100.00
41202;BME280;26936;50.524;8.684;2024-01-15T05:42:48;97993.22;;;-0.32;100.00
41202;BME280;26936;50.524;8.684;2024-01-15T05:45:13;97995.91;;;-0.25;100.00
41202;BME280;26936;50.524;8.684;2024-01-15T05:47:39;97998.31;;;-0.27;100.00
41202;BME280;26936;50.524;8.684;2024-01-15T05:50:04;97997.97;;;-0.32;100.00
41202;BME280;26936;50.524;8.684;2024-01-15T05:52:29;97993.53;;;-0.26;100.00
41202;BME280;26936;50.524;8.684;2024-01-15T05:54:55;98002.66;;;-0.29;100.00
41202;BME280;26936;50.524;8.684;2024-01-15T05:57:20;97989.56;;;-0.22;100.00
41202;BME280;26936;50.524;8.684;2024-01-15T05:59:45;98001.53;;;-0.32;100.00
41202;BME280;26936;50.524;8.684;2024-01-15T06:02:11;97987.66;;;-0.28;100.00
41202;BME280;26936;50.524;8.684;2024-01-15T06:04:36;97987.53;;;-0.21;100.00
41202;BME280;26936;50.524;8.684;2024-01-15T06:07:02;97983.56;;;-0.17;100.00
41202;BME280;26936;50.524;8.684;2024-01-15T06:09:27;97976.81;;;-0.16;100.00
41202;BME280;26936;50.524;8.684;2024-01-15T06:11:53;97977.69;;;-0.22;100.00
41202;BME280;26936;50.524;8.684;2024-01-15T06:14:18;97985.44;;;-0.10;100.00
41202;BME280;26936;50.524;8.684;2024-01-15T06:16:44;97979.97;;;-0.14;100.00
41202;BME280;26936;50.524;8.684;2024-01-15T06:19:09;97974.44;;;-0.14;100.00
41202;BME280;26936;50.524;8.684;2024-01-15T06:21:34;97979.91;;;-0.10;100.00
41202;BME280;26936;50.524;8.684;2024-01-15T06:23:59;97972.41;;;-0.13;100.00
41202;BME280;26936;50.524;8.684;2024-01-15T06:26:25;97976.34;;;-0.11;100.00
41202;BME280;26936;50.524;8.684;2024-01-15T06:28:50;97978.28;;;-0.08;100.00
41202;BME280;26936;50.524;8.684;2024-01-15T06:31:15;97967.63;;;-0.09;100.00
41202;BME280;26936;50.524;8.684;2024-01-15T06:33:40;97959.38;;;-0.13;100.00
41202;BME280;26936;50.524;8.684;2024-01-15T06:36:06;97957.06;;;-0.18;100.00
41202;BME280;26936;50.524;8.684;2024-01-15T06:38:32;97959.13;;;-0.22;100.00
41202;BME280;26936;50.524;8.684;2024-01-15T06:40:57;97965.00;;;-0.20;100.00
41202;BME280;26936;50.524;8.684;2024-01-15T06:43:22;97962.97;;;-0.16;100.00
41202;BME280;26936;50.524;8.684;2024-01-15T06:45:48;97965.69;;;-0.12;100.00
41202;BME280;26936;50.524;8.684;2024-01-15T06:48:13;97957.41;;;-0.12;100.00
41202;BME280;26936;50.524;8.684;2024-01-15T06:50:41;97951.13;;;-0.16;100.00
41202;BME280;26936;50.524;8.684;2024-01-15T06:53:06;97943.63;;;-0.16;100.00
41202;BME280;26936;50.524;8.684;2024-01-15T06:55:31;97954.00;;;-0.23;100.00
41202;BME280;26936;50.524;8.684;2024-01-15T06:57:57;97955.19;;;-0.24;100.00
41202;BME280;26936;50.524;8.684;2024-01-15T07:00:22;97961.47;;;-0.20;100.00
41202;BME280;26936;50.524;8.684;2024-01-15T07:02:47;97957.94;;;-0.24;100.00
41202;BME280;26936;50.524;8.684;2024-01-15T07:05:13;97961.56;;;-0.27;100.00
41202;BME280;26936;50.524;8.684;2024-01-15T07:07:39;97959.88;;;-0.21;100.00
41202;BME280;26936;50.524;8.684;2024-01-15T07:10:05;97954.78;;;-0.23;100.00
41202;BME280;26936;50.524;8.684;2024-01-15T07:12:31;97950.41;;;-0.20;100.00
41202;BME280;26936;50.524;8.684;2024-01-15T07:14:56;97954.16;;;-0.07;100.00
41202;BME280;26936;50.524;8.684;2024-01-15T07:17:22;97955.81;;;-0.13;100.00
41202;BME280;26936;50.524;8.684;2024-01-15T07:19:47;97958.19;;;-0.12;100.00
41202;BME280;26936;50.524;8.684;2024-01-15T07:22:12;97961.31;;;-0.10;100.00
41202;BME280;26936;50.524;8.684;2024-01-15T07:24:38;97967.63;;;-0.09;100.00
41202;BME280;26936;50.524;8.684;2024-01-15T07:27:03;97967.16;;;-0.04;100.00
41202;BME280;26936;50.524;8.684;2024-01-15T07:29:30;97963.66;;;-0.08;100.00
41202;BME280;26936;50.524;8.684;2024-01-15T07:31:55;97970.72;;;-0.04;100.00
41202;BME280;26936;50.524;8.684;2024-01-15T07:34:20;97954.41;;;0.02;100.00
41202;BME280;26936;50.524;8.684;2024-01-15T07:36:46;97950.47;;;0.03;100.00
41202;BME280;26936;50.524;8.684;2024-01-15T07:39:12;97959.63;;;0.00;100.00
41202;BME280;26936;50.524;8.684;2024-01-15T07:41:37;97956.34;;;0.05;100.00
41202;BME280;26936;50.524;8.684;2024-01-15T07:44:03;97956.72;;;0.07;100.00
41202;BME280;26936;50.524;8.684;2024-01-15T07:46:28;97955.47;;;0.12;100.00
41202;BME280;26936;50.524;8.684;2024-01-15T07:48:53;97963.00;;;0.11;100.00
41202;BME280;26936;50.524;8.684;2024-01-15T07:51:22;97958.19;;;0.15;100.00
41202;BME280;26936;50.524;8.684;2024-01-15T07:53:47;97950.63;;;0.19;100.00
41202;BME280;26936;50.524;8.684;2024-01-15T07:56:13;97960.63;;;0.13;100.00
41202;BME280;26936;50.524;8.684;2024-01-15T07:58:38;97953.81;;;0.18;100.00
41202;BME280;26936;50.524;8.684;2024-01-15T08:01:03;97956.53;;;0.21;100.00
41202;BME280;26936;50.524;8.684;2024-01-15T08:03:29;97965.19;;;0.23;100.00
41202;BME280;26936;50.524;8.684;2024-01-15T08:05:54;97956.06;;;0.26;100.00
41202;BME280;26936;50.524;8.684;2024-01-15T08:08:22;97951.72;;;0.25;100.00
41202;BME280;26936;50.524;8.684;2024-01-15T08:10:48;97952.56;;;0.22;100.00
41202;BME280;26936;50.524;8.684;2024-01-15T08:13:13;97952.78;;;0.31;100.00
41202;BME280;26936;50.524;8.684;2024-01-15T08:15:39;97953.22;;;0.30;100.00
41202;BME280;26936;50.524;8.684;2024-01-15T08:18:04;97950.81;;;0.32;100.00
41202;BME280;26936;50.524;8.684;2024-01-15T08:20:29;97939.38;;;0.30;100.00
41202;BME280;26936;50.524;8.684;2024-01-15T08:22:55;97938.19;;;0.31;100.00
41202;BME280;26936;50.524;8.684;2024-01-15T08:25:21;97945.97;;;0.39;100.00
41202;BME280;26936;50.524;8.684;2024-01-15T08:27:46;97950.59;;;0.46;100.00
41202;BME280;26936;50.524;8.684;2024-01-15T08:30:12;97949.34;;;0.50;100.00
41202;BME280;26936;50.524;8.684;2024-01-15T08:32:37;97947.75;;;0.49;100.00
41202;BME280;26936;50.524;8.684;2024-01-15T08:35:07;97955.31;;;0.49;100.00
41202;BME280;26936;50.524;8.684;2024-01-15T08:37:32;97944.56;;;0.51;100.00
41202;BME280;26936;50.524;8.684;2024-01-15T08:39:57;97945.72;;;0.53;100.00
41202;BME280;26936;50.524;8.684;2024-01-15T08:42:22;97940.56;;;0.55;100.00
41202;BME280;26936;50.524;8.684;2024-01-15T08:44:48;97934.97;;;0.59;100.00
41202;BME280;26936;50.524;8.684;2024-01-15T08:47:13;97931.03;;;0.56;100.00
41202;BME280;26936;50.524;8.684;2024-01-15T08:49:38;97931.41;;;0.58;100.00
41202;BME280;26936;50.524;8.684;2024-01-15T08:52:05;97920.69;;;0.60;100.00
41202;BME280;26936;50.524;8.684;2024-01-15T08:54:30;97933.38;;;0.58;100.00
41202;BME280;26936;50.524;8.684;2024-01-15T08:56:56;97933.75;;;0.60;100.00
41202;BME280;26936;50.524;8.684;2024-01-15T08:59:21;97938.91;;;0.58;100.00
41202;BME280;26936;50.524;8.684;2024-01-15T09:01:50;97938.50;;;0.59;100.00
41202;BME280;26936;50.524;8.684;2024-01-15T09:04:16;97946.09;;;0.55;100.00
41202;BME280;26936;50.524;8.684;2024-01-15T09:06:45;97944.44;;;0.58;100.00
41202;BME280;26936;50.524;8.684;2024-01-15T09:09:10;97944.03;;;0.59;100.00
41202;BME280;26936;50.524;8.684;2024-01-15T09:11:36;97942.00;;;0.63;100.00
41202;BME280;26936;50.524;8.684;2024-01-15T09:14:01;97935.97;;;0.68;100.00
41202;BME280;26936;50.524;8.684;2024-01-15T09:16:26;97932.84;;;0.66;100.00
41202;BME280;26936;50.524;8.684;2024-01-15T09:18:52;97933.25;;;0.65;100.00
41202;BME280;26936;50.524;8.684;2024-01-15T09:21:17;97933.97;;;0.69;100.00
41202;BME280;26936;50.524;8.684;2024-01-15T09:23:42;97928.78;;;0.71;100.00
41202;BME280;26936;50.524;8.684;2024-01-15T09:26:08;97921.91;;;0.79;100.00
41202;BME280;26936;50.524;8.684;2024-01-15T09:28:34;97917.28;;;0.72;100.00
41202;BME280;26936;50.524;8.684;2024-01-15T09:30:59;97929.47;;;0.78;100.00
41202;BME280;26936;50.524;8.684;2024-01-15T09:33:24;97921.00;;;0.85;100.00
41202;BME280;26936;50.524;8.684;2024-01-15T09:35:50;97925.78;;;0.85;100.00
41202;BME280;26936;50.524;8.684;2024-01-15T09:38:15;97938.06;;;0.84;100.00
41202;BME280;26936;50.524;8.684;2024-01-15T09:40:43;97945.66;;;0.80;100.00
41202;BME280;26936;50.524;8.684;2024-01-15T09:43:08;97937.28;;;0.83;100.00
41202;BME280;26936;50.524;8.684;2024-01-15T09:45:34;97937.94;;;0.91;100.00
41202;BME280;26936;50.524;8.684;2024-01-15T09:47:59;97945.94;;;0.85;100.00
41202;BME280;26936;50.524;8.684;2024-01-15T09:50:24;97942.69;;;0.90;100.00
41202;BME280;26936;50.524;8.684;2024-01-15T09:52:50;97944.13;;;0.98;99.95
41202;BME280;26936;50.524;8.684;2024-01-15T09:55:17;97942.16;;;0.99;99.36
41202;BME280;26936;50.524;8.684;2024-01-15T09:57:44;97938.94;;;1.00;98.98
41202;BME280;26936;50.524;8.684;2024-01-15T10:00:10;97936.47;;;1.06;99.16
41202;BME280;26936;50.524;8.684;2024-01-15T10:02:36;97934.53;;;1.03;98.45
41202;BME280;26936;50.524;8.684;2024-01-15T10:05:02;97944.00;;;1.05;98.50
41202;BME280;26936;50.524;8.684;2024-01-15T10:07:29;97938.88;;;1.04;97.83
41202;BME280;26936;50.524;8.684;2024-01-15T10:09:54;97923.03;;;1.04;97.86
41202;BME280;26936;50.524;8.684;2024-01-15T10:12:22;97918.56;;;1.10;98.16
41202;BME280;26936;50.524;8.684;2024-01-15T10:14:48;97919.34;;;1.11;98.47
41202;BME280;26936;50.524;8.684;2024-01-15T10:17:14;97917.91;;;1.03;97.96
41202;BME280;26936;50.524;8.684;2024-01-15T10:19:40;97911.03;;;0.91;98.27
41202;BME280;26936;50.524;8.684;2024-01-15T10:22:07;97903.09;;;0.90;98.67
41202;BME280;26936;50.524;8.684;2024-01-15T10:24:35;97894.28;;;0.95;98.23
41202;BME280;26936;50.524;8.684;2024-01-15T10:27:07;97895.72;;;1.03;97.52
41202;BME280;26936;50.524;8.684;2024-01-15T10:29:34;97895.09;;;0.95;97.52
41202;BME280;26936;50.524;8.684;2024-01-15T10:31:59;97888.69;;;0.98;97.45
41202;BME280;26936;50.524;8.684;2024-01-15T10:34:25;97908.75;;;1.06;97.44
41202;BME280;26936;50.524;8.684;2024-01-15T10:36:50;97893.97;;;1.12;96.92
41202;BME280;26936;50.524;8.684;2024-01-15T10:39:23;97887.72;;;1.08;96.31
41202;BME280;26936;50.524;8.684;2024-01-15T10:41:51;97878.09;;;1.13;96.00
41202;BME280;26936;50.524;8.684;2024-01-15T10:44:17;97871.94;;;1.25;95.88
41202;BME280;26936;50.524;8.684;2024-01-15T10:46:43;97868.66;;;1.30;95.65
41202;BME280;26936;50.524;8.684;2024-01-15T10:49:11;97868.59;;;1.33;94.95
41202;BME280;26936;50.524;8.684;2024-01-15T10:51:36;97868.59;;;1.33;94.72
41202;BME280;26936;50.524;8.684;2024-01-15T10:54:01;97859.25;;;1.44;94.26
41202;BME280;26936;50.524;8.684;2024-01-15T10:56:30;97875.13;;;1.43;94.22
41202;BME280;26936;50.524;8.684;2024-01-15T10:58:56;97851.56;;;1.51;93.23
41202;BME280;26936;50.524;8.684;2024-01-15T11:01:22;97837.63;;;1.55;93.25
41202;BME280;26936;50.524;8.684;2024-01-15T11:03:48;97838.22;;;1.62;92.53
41202;BME280;26936;50.524;8.684;2024-01-15T11:06:17;97833.81;;;1.65;92.44
41202;BME280;26936;50.524;8.684;2024-01-15T11:08:49;97838.59;;;1.64;92.37
41202;BME280;26936;50.524;8.684;2024-01-15T11:11:16;97837.34;;;1.65;92.04
41202;BME280;26936;50.524;8.684;2024-01-15T11:13:41;97837.22;;;1.72;92.29
41202;BME280;26936;50.524;8.684;2024-01-15T11:16:11;97829.59;;;1.76;92.62
41202;BME280;26936;50.524;8.684;2024-01-15T11:23:46;97841.72;;;1.66;92.42
41202;BME280;26936;50.524;8.684;2024-01-15T11:26:31;97836.41;;;1.72;93.01
41202;BME280;26936;50.524;8.684;2024-01-15T11:28:58;97831.13;;;1.61;93.44
41202;BME280;26936;50.524;8.684;2024-01-15T11:34:06;97830.94;;;1.68;94.92
41202;BME280;26936;50.524;8.684;2024-01-15T11:41:55;97822.81;;;1.77;94.50
41202;BME280;26936;50.524;8.684;2024-01-15T11:44:20;97828.09;;;1.72;93.35
41202;BME280;26936;50.524;8.684;2024-01-15T11:46:57;97816.91;;;1.75;94.35
41202;BME280;26936;50.524;8.684;2024-01-15T11:50:01;97819.19;;;1.80;95.40
41202;BME280;26936;50.524;8.684;2024-01-15T11:52:32;97839.97;;;1.72;95.47
41202;BME280;26936;50.524;8.684;2024-01-15T11:55:22;97830.09;;;1.71;98.78
41202;BME280;26936;50.524;8.684;2024-01-15T11:57:52;97832.25;;;1.64;98.76
41202;BME280;26936;50.524;8.684;2024-01-15T12:00:20;97838.38;;;1.55;100.00
41202;BME280;26936;50.524;8.684;2024-01-15T12:02:46;97846.44;;;1.50;100.00
41202;BME280;26936;50.524;8.684;2024-01-15T12:05:15;97848.50;;;1.46;100.00
41202;BME280;26936;50.524;8.684;2024-01-15T12:07:48;97846.59;;;1.42;100.00
41202;BME280;26936;50.524;8.684;2024-01-15T12:10:16;97833.38;;;1.50;100.00
41202;BME280;26936;50.524;8.684;2024-01-15T12:12:57;97852.69;;;1.54;100.00
41202;BME280;26936;50.524;8.684;2024-01-15T12:15:30;97829.69;;;1.89;99.82
41202;BME280;26936;50.524;8.684;2024-01-15T12:17:56;97830.88;;;1.88;100.00
41202;BME280;26936;50.524;8.684;2024-01-15T12:20:26;97839.47;;;1.77;100.00
41202;BME280;26936;50.524;8.684;2024-01-15T12:22:52;97831.28;;;1.54;100.00
41202;BME280;26936;50.524;8.684;2024-01-15T12:25:17;97842.03;;;1.68;100.00
41202;BME280;26936;50.524;8.684;2024-01-15T12:27:43;97853.28;;;1.45;100.00
41202;BME280;26936;50.524;8.684;2024-01-15T12:30:13;97845.09;;;1.38;100.00
41202;BME280;26936;50.524;8.684;2024-01-15T12:32:40;97845.97;;;1.35;100.00
41202;BME280;26936;50.524;8.684;2024-01-15T12:35:06;97853.13;;;1.32;100.00
41202;BME280;26936;50.524;8.684;2024-01-15T12:37:31;97847.59;;;1.32;100.00
41202;BME280;26936;50.524;8.684;2024-01-15T12:39:59;97841.13;;;1.39;100.00
41202;BME280;26936;50.524;8.684;2024-01-15T12:42:24;97862.09;;;1.40;100.00
41202;BME280;26936;50.524;8.684;2024-01-15T12:44:50;97855.16;;;1.32;100.00
41202;BME280;26936;50.524;8.684;2024-01-15T12:47:15;97854.56;;;1.40;100.00
41202;BME280;26936;50.524;8.684;2024-01-15T12:49:46;97842.91;;;1.29;100.00
41202;BME280;26936;50.524;8.684;2024-01-15T12:52:13;97852.81;;;1.30;100.00
41202;BME280;26936;50.524;8.684;2024-01-15T12:54:38;97867.88;;;1.29;100.00
41202;BME280;26936;50.524;8.684;2024-01-15T12:57:03;97852.94;;;1.43;100.00
41202;BME280;26936;50.524;8.684;2024-01-15T12:59:28;97846.22;;;1.40;100.00
41202;BME280;26936;50.524;8.684;2024-01-15T13:01:54;97870.34;;;1.44;100.00
41202;BME280;26936;50.524;8.684;2024-01-15T13:04:24;97852.06;;;1.46;100.00